sensor_id;sensor_type;location;lat;lon;timestamp;temperature;humidity
63966;DHT22;50151;52.030;5.350;2023-08-20T00:01:21;18.80;99.90
63966;DHT22;50151;52.030;5.350;2023-08-20T00:03:49;18.80;99.90
63966;DHT22;50151;52.030;5.350;2023-08-20T00:06:16;18.70;99.90
63966;DHT22;50151;52.030;5.350;2023-08-20T00:08:43;18.70;99.90
63966;DHT22;50151;52.030;5.350;2023-08-20T00:11:11;18.70;99.90
63966;DHT22;50151;52.030;5.350;2023-08-20T00:13:39;18.70;99.90
63966;DHT22;50151;52.030;5.350;2023-08-20T00:16:06;18.70;99.90
63966;DHT22;50151;52.030;5.350;2023-08-20T00:18:33;18.60;99.90
63966;DHT22;50151;52.030;5.350;2023-08-20T00:21:04;18.60;99.90
63966;DHT22;50151;52.030;5.350;2023-08-20T00:23:32;18.60;99.90
63966;DHT22;50151;52.030;5.350;2023-08-20T00:25:59;18.50;99.90
63966;DHT22;50151;52.030;5.350;2023-08-20T00:28:26;18.60;99.90
63966;DHT22;50151;52.030;5.350;2023-08-20T00:30:53;18.50;99.90
63966;DHT22;50151;52.030;5.350;2023-08-20T00:33:19;18.40;99.90
63966;DHT22;50151;52.030;5.350;2023-08-20T00:35:46;18.40;99.90
63966;DHT22;50151;52.030;5.350;2023-08-20T00:38:13;18.40;99.90
63966;DHT22;50151;52.030;5.350;2023-08-20T00:40:40;18.40;99.90
63966;DHT22;50151;52.030;5.350;2023-08-20T00:43:07;18.50;99.90
63966;DHT22;50151;52.030;5.350;2023-08-20T00:45:34;18.50;99.90
63966;DHT22;50151;52.030;5.350;2023-08-20T00:48:00;18.50;99.90
63966;DHT22;50151;52.030;5.350;2023-08-20T00:50:28;18.50;99.90
63966;DHT22;50151;52.030;5.350;2023-08-20T00:52:55;18.50;99.90
63966;DHT22;50151;52.030;5.350;2023-08-20T00:55:22;18.50;99.90
63966;DHT22;50151;52.030;5.350;2023-08-20T00:57:49;18.50;99.90
63966;DHT22;50151;52.030;5.350;2023-08-20T01:00:17;18.50;99.90
63966;DHT22;50151;52.030;5.350;2023-08-20T01:02:44;18.50;99.90
63966;DHT22;50151;52.030;5.350;2023-08-20T01:05:14;18.50;99.90
63966;DHT22;50151;52.030;5.350;2023-08-20T01:10:56;18.50;99.90
63966;DHT22;50151;52.030;5.350;2023-08-20T01:13:24;18.50;99.90
63966;DHT22;50151;52.030;5.350;2023-08-20T01:15:51;18.50;99.90
63966;DHT22;50151;52.030;5.350;2023-08-20T01:18:17;18.40;99.90
63966;DHT22;50151;52.030;5.350;2023-08-20T01:20:55;18.40;99.90
63966;DHT22;50151;52.030;5.350;2023-08-20T01:28:31;18.30;99.90
63966;DHT22;50151;52.030;5.350;2023-08-20T01:30:59;18.30;99.90
63966;DHT22;50151;52.030;5.350;2023-08-20T01:33:30;18.40;99.90
63966;DHT22;50151;52.030;5.350;2023-08-20T01:35:57;18.30;99.90
63966;DHT22;50151;52.030;5.350;2023-08-20T01:38:24;18.30;99.90
63966;DHT22;50151;52.030;5.350;2023-08-20T01:40:50;18.20;99.90
63966;DHT22;50151;52.030;5.350;2023-08-20T01:43:17;18.20;99.90
63966;DHT22;50151;52.030;5.350;2023-08-20T01:45:44;18.20;99.90
63966;DHT22;50151;52.030;5.350;2023-08-20T01:48:11;18.10;99.90
63966;DHT22;50151;52.030;5.350;2023-08-20T01:50:37;18.10;99.90
63966;DHT22;50151;52.030;5.350;2023-08-20T01:53:04;18.00;99.90
63966;DHT22;50151;52.030;5.350;2023-08-20T01:55:31;18.00;99.90
63966;DHT22;50151;52.030;5.350;2023-08-20T01:57:59;18.00;99.90
63966;DHT22;50151;52.030;5.350;2023-08-20T02:00:26;18.00;99.90
63966;DHT22;50151;52.030;5.350;2023-08-20T02:02:54;18.00;99.90
63966;DHT22;50151;52.030;5.350;2023-08-20T02:05:21;17.90;99.90
63966;DHT22;50151;52.030;5.350;2023-08-20T02:07:47;17.90;99.90
63966;DHT22;50151;52.030;5.350;2023-08-20T02:10:14;17.90;99.90
63966;DHT22;50151;52.030;5.350;2023-08-20T02:12:41;17.80;99.90
63966;DHT22;50151;52.030;5.350;2023-08-20T02:15:09;17.80;99.90
63966;DHT22;50151;52.030;5.350;2023-08-20T02:17:35;17.80;99.90
63966;DHT22;50151;52.030;5.350;2023-08-20T02:20:03;17.70;99.90
63966;DHT22;50151;52.030;5.350;2023-08-20T02:22:31;17.70;99.90
63966;DHT22;50151;52.030;5.350;2023-08-20T02:24:58;17.70;99.90
63966;DHT22;50151;52.030;5.350;2023-08-20T02:27:24;17.70;99.90
63966;DHT22;50151;52.030;5.350;2023-08-20T02:29:51;17.60;99.90
63966;DHT22;50151;52.030;5.350;2023-08-20T02:32:18;17.60;99.90
63966;DHT22;50151;52.030;5.350;2023-08-20T02:34:50;17.60;99.90
63966;DHT22;50151;52.030;5.350;2023-08-20T02:37:17;17.60;99.90
63966;DHT22;50151;52.030;5.350;2023-08-20T02:39:44;17.50;99.90
63966;DHT22;50151;52.030;5.350;2023-08-20T02:42:10;17.50;99.90
63966;DHT22;50151;52.030;5.350;2023-08-20T02:44:37;17.40;99.90
63966;DHT22;50151;52.030;5.350;2023-08-20T02:47:04;17.40;99.90
63966;DHT22;50151;52.030;5.350;2023-08-20T02:49:31;17.40;99.90
63966;DHT22;50151;52.030;5.350;2023-08-20T02:51:57;17.40;99.90
63966;DHT22;50151;52.030;5.350;2023-08-20T02:54:24;17.40;99.90
63966;DHT22;50151;52.030;5.350;2023-08-20T02:56:52;17.30;99.90
63966;DHT22;50151;52.030;5.350;2023-08-20T02:59:19;17.30;99.90
63966;DHT22;50151;52.030;5.350;2023-08-20T03:01:46;17.20;99.90
63966;DHT22;50151;52.030;5.350;2023-08-20T03:04:13;17.20;99.90
63966;DHT22;50151;52.030;5.350;2023-08-20T03:06:40;17.10;99.90
63966;DHT22;50151;52.030;5.350;2023-08-20T03:09:07;17.10;99.90
63966;DHT22;50151;52.030;5.350;2023-08-20T03:11:33;17.10;99.90
63966;DHT22;50151;52.030;5.350;2023-08-20T03:14:00;17.10;99.90
63966;DHT22;50151;52.030;5.350;2023-08-20T03:16:27;17.10;99.90
63966;DHT22;50151;52.030;5.350;2023-08-20T03:18:54;17.10;99.90
63966;DHT22;50151;52.030;5.350;2023-08-20T03:21:20;17.00;99.90
63966;DHT22;50151;52.030;5.350;2023-08-20T03:23:47;17.00;99.90
63966;DHT22;50151;52.030;5.350;2023-08-20T03:26:14;16.90;99.90
63966;DHT22;50151;52.030;5.350;2023-08-20T03:28:40;16.90;99.90
63966;DHT22;50151;52.030;5.350;2023-08-20T03:31:07;16.90;99.90
63966;DHT22;50151;52.030;5.350;2023-08-20T03:33:34;16.90;99.90
63966;DHT22;50151;52.030;5.350;2023-08-20T03:36:00;16.90;99.90
63966;DHT22;50151;52.030;5.350;2023-08-20T03:38:27;16.80;99.90
63966;DHT22;50151;52.030;5.350;2023-08-20T03:40:55;16.80;99.90
63966;DHT22;50151;52.030;5.350;2023-08-20T03:43:21;16.80;99.90
63966;DHT22;50151;52.030;5.350;2023-08-20T03:45:52;16.80;99.90
63966;DHT22;50151;52.030;5.350;2023-08-20T03:48:19;16.80;99.90
63966;DHT22;50151;52.030;5.350;2023-08-20T03:50:47;16.80;99.90
63966;DHT22;50151;52.030;5.350;2023-08-20T03:53:13;16.70;99.90
63966;DHT22;50151;52.030;5.350;2023-08-20T03:55:40;16.70;99.90
63966;DHT22;50151;52.030;5.350;2023-08-20T03:58:07;16.70;99.90
63966;DHT22;50151;52.030;5.350;2023-08-20T04:00:35;16.70;99.90
63966;DHT22;50151;52.030;5.350;2023-08-20T04:03:02;16.70;99.90
63966;DHT22;50151;52.030;5.350;2023-08-20T04:05:29;16.70;99.90
63966;DHT22;50151;52.030;5.350;2023-08-20T04:07:55;16.60;99.90
63966;DHT22;50151;52.030;5.350;2023-08-20T04:10:22;16.60;99.90
63966;DHT22;50151;52.030;5.350;2023-08-20T04:12:49;16.70;99.90
63966;DHT22;50151;52.030;5.350;2023-08-20T04:15:16;16.60;99.90
63966;DHT22;50151;52.030;5.350;2023-08-20T04:17:42;16.60;99.90
63966;DHT22;50151;52.030;5.350;2023-08-20T04:20:09;16.50;99.90
63966;DHT22;50151;52.030;5.350;2023-08-20T04:22:37;16.60;99.90
63966;DHT22;50151;52.030;5.350;2023-08-20T04:25:05;16.50;99.90
63966;DHT22;50151;52.030;5.350;2023-08-20T04:27:32;16.50;99.90
63966;DHT22;50151;52.030;5.350;2023-08-20T04:30:00;16.50;99.90
63966;DHT22;50151;52.030;5.350;2023-08-20T04:32:27;16.50;99.90
63966;DHT22;50151;52.030;5.350;2023-08-20T04:34:54;16.50;99.90
63966;DHT22;50151;52.030;5.350;2023-08-20T04:37:21;16.50;99.90
63966;DHT22;50151;52.030;5.350;2023-08-20T04:39:48;16.50;99.90
63966;DHT22;50151;52.030;5.350;2023-08-20T04:42:15;16.50;99.90
63966;DHT22;50151;52.030;5.350;2023-08-20T04:44:42;16.50;99.90
63966;DHT22;50151;52.030;5.350;2023-08-20T04:47:12;16.50;99.90
63966;DHT22;50151;52.030;5.350;2023-08-20T04:49:39;16.50;99.90
63966;DHT22;50151;52.030;5.350;2023-08-20T04:52:06;16.50;99.90
63966;DHT22;50151;52.030;5.350;2023-08-20T04:54:33;16.50;99.90
63966;DHT22;50151;52.030;5.350;2023-08-20T04:57:00;16.60;99.90
63966;DHT22;50151;52.030;5.350;2023-08-20T04:59:26;16.60;99.90
63966;DHT22;50151;52.030;5.350;2023-08-20T05:01:54;16.50;99.90
63966;DHT22;50151;52.030;5.350;2023-08-20T05:04:21;16.60;99.90
63966;DHT22;50151;52.030;5.350;2023-08-20T05:06:47;16.60;99.90
63966;DHT22;50151;52.030;5.350;2023-08-20T05:09:14;16.60;99.90
63966;DHT22;50151;52.030;5.350;2023-08-20T05:11:42;16.60;99.90
63966;DHT22;50151;52.030;5.350;2023-08-20T05:14:09;16.60;99.90
63966;DHT22;50151;52.030;5.350;2023-08-20T05:16:35;16.60;99.90
63966;DHT22;50151;52.030;5.350;2023-08-20T05:19:03;16.60;99.90
63966;DHT22;50151;52.030;5.350;2023-08-20T05:21:30;16.50;99.90
63966;DHT22;50151;52.030;5.350;2023-08-20T05:23:56;16.60;99.90
63966;DHT22;50151;52.030;5.350;2023-08-20T05:26:23;16.60;99.90
63966;DHT22;50151;52.030;5.350;2023-08-20T05:28:50;16.60;99.90
63966;DHT22;50151;52.030;5.350;2023-08-20T05:31:16;16.60;99.90
63966;DHT22;50151;52.030;5.350;2023-08-20T05:33:43;16.60;99.90
63966;DHT22;50151;52.030;5.350;2023-08-20T05:36:10;16.60;99.90
63966;DHT22;50151;52.030;5.350;2023-08-20T05:38:36;16.60;99.90
63966;DHT22;50151;52.030;5.350;2023-08-20T05:41:03;16.60;99.90
63966;DHT22;50151;52.030;5.350;2023-08-20T05:43:30;16.60;99.90
63966;DHT22;50151;52.030;5.350;2023-08-20T05:45:56;16.60;99.90
63966;DHT22;50151;52.030;5.350;2023-08-20T05:48:23;16.60;99.90
63966;DHT22;50151;52.030;5.350;2023-08-20T05:50:50;16.60;99.90
63966;DHT22;50151;52.030;5.350;2023-08-20T05:53:17;16.70;99.90
63966;DHT22;50151;52.030;5.350;2023-08-20T05:55:43;16.70;99.90
63966;DHT22;50151;52.030;5.350;2023-08-20T05:58:10;16.80;99.90
63966;DHT22;50151;52.030;5.350;2023-08-20T06:00:37;16.80;99.90
63966;DHT22;50151;52.030;5.350;2023-08-20T06:03:04;16.80;99.90
63966;DHT22;50151;52.030;5.350;2023-08-20T06:05:31;16.80;99.90
63966;DHT22;50151;52.030;5.350;2023-08-20T06:07:58;16.90;99.90
63966;DHT22;50151;52.030;5.350;2023-08-20T06:10:25;17.00;99.90
63966;DHT22;50151;52.030;5.350;2023-08-20T06:12:51;17.00;99.90
63966;DHT22;50151;52.030;5.350;2023-08-20T06:15:18;17.10;99.90
63966;DHT22;50151;52.030;5.350;2023-08-20T06:17:45;17.20;99.90
63966;DHT22;50151;52.030;5.350;2023-08-20T06:20:12;17.30;99.90
63966;DHT22;50151;52.030;5.350;2023-08-20T06:22:38;17.30;99.90
63966;DHT22;50151;52.030;5.350;2023-08-20T06:25:05;17.40;99.90
63966;DHT22;50151;52.030;5.350;2023-08-20T06:27:32;17.50;99.90
63966;DHT22;50151;52.030;5.350;2023-08-20T06:30:01;17.60;99.90
63966;DHT22;50151;52.030;5.350;2023-08-20T06:32:28;17.70;99.90
63966;DHT22;50151;52.030;5.350;2023-08-20T06:34:55;17.80;99.90
63966;DHT22;50151;52.030;5.350;2023-08-20T06:37:22;17.80;99.90
63966;DHT22;50151;52.030;5.350;2023-08-20T06:39:48;17.90;99.90
63966;DHT22;50151;52.030;5.350;2023-08-20T06:42:15;17.90;99.90
63966;DHT22;50151;52.030;5.350;2023-08-20T06:44:42;18.00;99.90
63966;DHT22;50151;52.030;5.350;2023-08-20T06:47:08;18.10;99.90
63966;DHT22;50151;52.030;5.350;2023-08-20T06:49:35;18.10;99.90
63966;DHT22;50151;52.030;5.350;2023-08-20T06:52:02;18.20;99.90
63966;DHT22;50151;52.030;5.350;2023-08-20T06:54:29;18.30;99.90
63966;DHT22;50151;52.030;5.350;2023-08-20T06:56:56;18.40;99.90
63966;DHT22;50151;52.030;5.350;2023-08-20T06:59:23;18.50;99.90
63966;DHT22;50151;52.030;5.350;2023-08-20T07:01:50;18.60;99.90
63966;DHT22;50151;52.030;5.350;2023-08-20T07:04:17;18.70;99.90
63966;DHT22;50151;52.030;5.350;2023-08-20T07:06:43;18.70;99.90
63966;DHT22;50151;52.030;5.350;2023-08-20T07:09:10;18.80;99.90
63966;DHT22;50151;52.030;5.350;2023-08-20T07:11:37;18.80;99.90
63966;DHT22;50151;52.030;5.350;2023-08-20T07:14:04;18.90;99.90
63966;DHT22;50151;52.030;5.350;2023-08-20T07:16:31;18.90;99.90
63966;DHT22;50151;52.030;5.350;2023-08-20T07:18:58;19.10;99.90
63966;DHT22;50151;52.030;5.350;2023-08-20T07:21:25;19.10;99.90
63966;DHT22;50151;52.030;5.350;2023-08-20T07:23:51;19.20;99.90
63966;DHT22;50151;52.030;5.350;2023-08-20T07:26:18;19.30;99.90
63966;DHT22;50151;52.030;5.350;2023-08-20T07:28:45;19.40;99.90
63966;DHT22;50151;52.030;5.350;2023-08-20T07:31:30;19.50;99.90
63966;DHT22;50151;52.030;5.350;2023-08-20T07:33:59;19.60;99.90
63966;DHT22;50151;52.030;5.350;2023-08-20T07:36:31;19.60;99.90
63966;DHT22;50151;52.030;5.350;2023-08-20T07:38:59;19.70;99.90
63966;DHT22;50151;52.030;5.350;2023-08-20T07:41:28;19.80;99.90
63966;DHT22;50151;52.030;5.350;2023-08-20T07:43:55;19.80;99.90
63966;DHT22;50151;52.030;5.350;2023-08-20T07:46:21;19.90;99.90
63966;DHT22;50151;52.030;5.350;2023-08-20T07:48:48;19.90;99.90
63966;DHT22;50151;52.030;5.350;2023-08-20T07:51:15;19.90;99.90
63966;DHT22;50151;52.030;5.350;2023-08-20T07:53:42;20.00;99.90
63966;DHT22;50151;52.030;5.350;2023-08-20T07:56:09;20.10;99.90
63966;DHT22;50151;52.030;5.350;2023-08-20T07:58:36;20.10;99.90
63966;DHT22;50151;52.030;5.350;2023-08-20T08:01:02;20.20;99.90
63966;DHT22;50151;52.030;5.350;2023-08-20T08:03:29;20.30;99.90
63966;DHT22;50151;52.030;5.350;2023-08-20T08:05:56;20.40;99.90
63966;DHT22;50151;52.030;5.350;2023-08-20T08:08:24;20.40;99.90
63966;DHT22;50151;52.030;5.350;2023-08-20T08:10:50;20.40;99.90
63966;DHT22;50151;52.030;5.350;2023-08-20T08:13:22;20.50;99.90
63966;DHT22;50151;52.030;5.350;2023-08-20T08:15:50;20.50;99.90
63966;DHT22;50151;52.030;5.350;2023-08-20T08:18:21;20.60;99.90
63966;DHT22;50151;52.030;5.350;2023-08-20T08:20:49;20.70;99.90
63966;DHT22;50151;52.030;5.350;2023-08-20T08:23:16;20.80;99.90
63966;DHT22;50151;52.030;5.350;2023-08-20T08:25:43;20.90;99.90
63966;DHT22;50151;52.030;5.350;2023-08-20T08:28:09;21.00;99.90
63966;DHT22;50151;52.030;5.350;2023-08-20T08:30:37;21.00;99.90
63966;DHT22;50151;52.030;5.350;2023-08-20T08:33:04;21.10;99.90
63966;DHT22;50151;52.030;5.350;2023-08-20T08:35:31;21.20;99.90
63966;DHT22;50151;52.030;5.350;2023-08-20T08:37:57;21.30;99.90
63966;DHT22;50151;52.030;5.350;2023-08-20T08:40:28;21.40;99.90
63966;DHT22;50151;52.030;5.350;2023-08-20T08:42:55;21.40;99.90
63966;DHT22;50151;52.030;5.350;2023-08-20T08:45:23;21.40;99.90
63966;DHT22;50151;52.030;5.350;2023-08-20T08:47:50;21.50;99.90
63966;DHT22;50151;52.030;5.350;2023-08-20T08:50:20;21.60;99.90
63966;DHT22;50151;52.030;5.350;2023-08-20T08:52:51;21.60;99.90
63966;DHT22;50151;52.030;5.350;2023-08-20T08:55:19;21.70;99.90
63966;DHT22;50151;52.030;5.350;2023-08-20T08:57:46;21.70;99.90
63966;DHT22;50151;52.030;5.350;2023-08-20T09:00:13;21.70;99.90
63966;DHT22;50151;52.030;5.350;2023-08-20T09:02:41;21.80;99.90
63966;DHT22;50151;52.030;5.350;2023-08-20T09:05:07;21.90;99.90
63966;DHT22;50151;52.030;5.350;2023-08-20T09:07:34;21.90;99.90
63966;DHT22;50151;52.030;5.350;2023-08-20T09:10:01;22.10;99.90
63966;DHT22;50151;52.030;5.350;2023-08-20T09:12:28;22.20;99.90
63966;DHT22;50151;52.030;5.350;2023-08-20T09:14:55;22.20;99.90
63966;DHT22;50151;52.030;5.350;2023-08-20T09:17:28;22.30;99.90
63966;DHT22;50151;52.030;5.350;2023-08-20T09:19:56;22.40;99.90
63966;DHT22;50151;52.030;5.350;2023-08-20T09:22:24;22.50;99.90
63966;DHT22;50151;52.030;5.350;2023-08-20T09:24:55;22.60;99.90
63966;DHT22;50151;52.030;5.350;2023-08-20T09:27:22;22.60;99.90
63966;DHT22;50151;52.030;5.350;2023-08-20T09:29:54;22.60;99.90
63966;DHT22;50151;52.030;5.350;2023-08-20T09:32:26;22.80;99.90
63966;DHT22;50151;52.030;5.350;2023-08-20T09:34:55;22.90;99.90
63966;DHT22;50151;52.030;5.350;2023-08-20T09:37:23;22.90;99.90
63966;DHT22;50151;52.030;5.350;2023-08-20T09:39:50;23.00;99.90
63966;DHT22;50151;52.030;5.350;2023-08-20T09:42:17;23.00;99.90
63966;DHT22;50151;52.030;5.350;2023-08-20T09:44:46;23.10;99.90
63966;DHT22;50151;52.030;5.350;2023-08-20T09:47:17;23.00;99.90
63966;DHT22;50151;52.030;5.350;2023-08-20T09:49:46;23.10;99.90
63966;DHT22;50151;52.030;5.350;2023-08-20T09:52:24;23.20;99.90
63966;DHT22;50151;52.030;5.350;2023-08-20T09:55:00;23.30;99.90
63966;DHT22;50151;52.030;5.350;2023-08-20T10:00:03;23.40;99.90
63966;DHT22;50151;52.030;5.350;2023-08-20T10:02:33;23.50;99.90
63966;DHT22;50151;52.030;5.350;2023-08-20T10:05:00;23.60;99.90
63966;DHT22;50151;52.030;5.350;2023-08-20T10:07:29;23.80;99.90
63966;DHT22;50151;52.030;5.350;2023-08-20T10:10:02;23.90;99.90
63966;DHT22;50151;52.030;5.350;2023-08-20T10:12:30;23.90;99.90
63966;DHT22;50151;52.030;5.350;2023-08-20T10:14:58;23.90;99.90
63966;DHT22;50151;52.030;5.350;2023-08-20T10:17:29;23.90;99.90
63966;DHT22;50151;52.030;5.350;2023-08-20T10:19:58;24.10;99.90
63966;DHT22;50151;52.030;5.350;2023-08-20T10:22:35;24.20;99.90
63966;DHT22;50151;52.030;5.350;2023-08-20T10:25:05;24.20;99.90
63966;DHT22;50151;52.030;5.350;2023-08-20T10:27:34;24.10;99.90
63966;DHT22;50151;52.030;5.350;2023-08-20T10:30:11;24.40;99.90
63966;DHT22;50151;52.030;5.350;2023-08-20T10:32:53;24.60;99.90
63966;DHT22;50151;52.030;5.350;2023-08-20T10:35:27;24.70;99.90
63966;DHT22;50151;52.030;5.350;2023-08-20T10:40:56;24.70;99.90
63966;DHT22;50151;52.030;5.350;2023-08-20T10:43:27;24.60;99.90
63966;DHT22;50151;52.030;5.350;2023-08-20T10:46:13;24.80;99.90
63966;DHT22;50151;52.030;5.350;2023-08-20T10:48:42;24.90;99.90
63966;DHT22;50151;52.030;5.350;2023-08-20T10:51:17;24.90;99.90
63966;DHT22;50151;52.030;5.350;2023-08-20T10:54:05;25.00;99.90
63966;DHT22;50151;52.030;5.350;2023-08-20T10:56:45;25.20;99.90
63966;DHT22;50151;52.030;5.350;2023-08-20T10:59:26;25.30;99.90
63966;DHT22;50151;52.030;5.350;2023-08-20T11:01:58;25.40;99.90
63966;DHT22;50151;52.030;5.350;2023-08-20T11:04:29;25.30;99.90
63966;DHT22;50151;52.030;5.350;2023-08-20T11:06:59;25.40;99.90
63966;DHT22;50151;52.030;5.350;2023-08-20T11:09:28;25.40;99.90
63966;DHT22;50151;52.030;5.350;2023-08-20T11:11:56;25.40;99.90
63966;DHT22;50151;52.030;5.350;2023-08-20T11:14:23;25.70;99.90
63966;DHT22;50151;52.030;5.350;2023-08-20T11:16:51;25.70;99.90
63966;DHT22;50151;52.030;5.350;2023-08-20T11:19:22;25.60;99.90
63966;DHT22;50151;52.030;5.350;2023-08-20T11:21:50;25.80;99.90
63966;DHT22;50151;52.030;5.350;2023-08-20T11:24:17;25.90;99.90
63966;DHT22;50151;52.030;5.350;2023-08-20T11:26:46;26.00;99.90
63966;DHT22;50151;52.030;5.350;2023-08-20T11:29:16;26.00;99.90
63966;DHT22;50151;52.030;5.350;2023-08-20T11:31:49;26.10;99.90
63966;DHT22;50151;52.030;5.350;2023-08-20T11:34:18;26.00;99.90
63966;DHT22;50151;52.030;5.350;2023-08-20T11:36:45;25.90;99.90
63966;DHT22;50151;52.030;5.350;2023-08-20T11:39:12;26.30;99.90
63966;DHT22;50151;52.030;5.350;2023-08-20T11:41:40;26.40;99.90
63966;DHT22;50151;52.030;5.350;2023-08-20T11:44:10;26.40;99.90
63966;DHT22;50151;52.030;5.350;2023-08-20T11:46:44;26.60;99.90
63966;DHT22;50151;52.030;5.350;2023-08-20T11:49:12;26.60;99.90
63966;DHT22;50151;52.030;5.350;2023-08-20T11:51:44;26.70;99.90
63966;DHT22;50151;52.030;5.350;2023-08-20T11:54:18;27.00;99.90
63966;DHT22;50151;52.030;5.350;2023-08-20T11:56:47;27.20;99.90
63966;DHT22;50151;52.030;5.350;2023-08-20T11:59:15;27.00;99.90
63966;DHT22;50151;52.030;5.350;2023-08-20T12:01:42;27.00;99.90
63966;DHT22;50151;52.030;5.350;2023-08-20T12:04:10;27.00;99.90
63966;DHT22;50151;52.030;5.350;2023-08-20T12:06:38;26.90;99.90
63966;DHT22;50151;52.030;5.350;2023-08-20T12:09:24;26.80;99.90
63966;DHT22;50151;52.030;5.350;2023-08-20T12:11:52;26.90;99.90
63966;DHT22;50151;52.030;5.350;2023-08-20T12:14:19;27.00;99.90
63966;DHT22;50151;52.030;5.350;2023-08-20T12:16:46;26.90;99.90
63966;DHT22;50151;52.030;5.350;2023-08-20T12:19:13;26.60;99.90
63966;DHT22;50151;52.030;5.350;2023-08-20T12:21:40;27.30;99.90
63966;DHT22;50151;52.030;5.350;2023-08-20T12:24:09;27.00;99.90
63966;DHT22;50151;52.030;5.350;2023-08-20T12:26:36;27.00;99.90
63966;DHT22;50151;52.030;5.350;2023-08-20T12:29:03;27.40;99.90
63966;DHT22;50151;52.030;5.350;2023-08-20T12:31:31;27.80;99.90
63966;DHT22;50151;52.030;5.350;2023-08-20T12:33:58;27.80;99.90
63966;DHT22;50151;52.030;5.350;2023-08-20T12:36:26;28.00;99.90
63966;DHT22;50151;52.030;5.350;2023-08-20T12:38:52;27.50;99.90
63966;DHT22;50151;52.030;5.350;2023-08-20T12:41:20;27.30;99.90
63966;DHT22;50151;52.030;5.350;2023-08-20T12:43:47;27.60;99.90
63966;DHT22;50151;52.030;5.350;2023-08-20T12:46:13;27.90;99.90
63966;DHT22;50151;52.030;5.350;2023-08-20T12:48:40;28.20;99.90
63966;DHT22;50151;52.030;5.350;2023-08-20T12:51:07;28.10;99.90
63966;DHT22;50151;52.030;5.350;2023-08-20T12:53:35;28.20;99.90
63966;DHT22;50151;52.030;5.350;2023-08-20T12:56:05;28.80;99.90
63966;DHT22;50151;52.030;5.350;2023-08-20T12:58:31;29.10;99.90
63966;DHT22;50151;52.030;5.350;2023-08-20T13:00:58;29.30;99.90
63966;DHT22;50151;52.030;5.350;2023-08-20T13:03:25;29.30;99.90
63966;DHT22;50151;52.030;5.350;2023-08-20T13:05:52;29.50;99.90
63966;DHT22;50151;52.030;5.350;2023-08-20T13:08:19;29.80;99.90
63966;DHT22;50151;52.030;5.350;2023-08-20T13:10:52;29.30;99.90
63966;DHT22;50151;52.030;5.350;2023-08-20T13:13:21;28.70;99.90
63966;DHT22;50151;52.030;5.350;2023-08-20T13:15:50;29.10;99.90
63966;DHT22;50151;52.030;5.350;2023-08-20T13:18:18;28.80;99.90
63966;DHT22;50151;52.030;5.350;2023-08-20T13:20:45;28.80;99.90
63966;DHT22;50151;52.030;5.350;2023-08-20T13:23:12;29.30;99.90
63966;DHT22;50151;52.030;5.350;2023-08-20T13:25:38;29.30;99.90
63966;DHT22;50151;52.030;5.350;2023-08-20T13:28:05;28.50;99.90
63966;DHT22;50151;52.030;5.350;2023-08-20T13:30:32;28.00;99.90
63966;DHT22;50151;52.030;5.350;2023-08-20T13:33:00;29.00;99.90
63966;DHT22;50151;52.030;5.350;2023-08-20T13:35:27;28.80;99.90
63966;DHT22;50151;52.030;5.350;2023-08-20T13:37:54;29.60;99.90
63966;DHT22;50151;52.030;5.350;2023-08-20T13:40:21;30.20;99.90
63966;DHT22;50151;52.030;5.350;2023-08-20T13:42:48;29.60;99.90
63966;DHT22;50151;52.030;5.350;2023-08-20T13:45:14;29.40;99.90
63966;DHT22;50151;52.030;5.350;2023-08-20T13:47:41;29.90;99.90
63966;DHT22;50151;52.030;5.350;2023-08-20T13:50:13;30.00;99.90
63966;DHT22;50151;52.030;5.350;2023-08-20T13:52:40;30.10;99.90
63966;DHT22;50151;52.030;5.350;2023-08-20T13:55:07;30.00;99.90
63966;DHT22;50151;52.030;5.350;2023-08-20T13:57:34;30.10;99.90
63966;DHT22;50151;52.030;5.350;2023-08-20T14:00:01;30.80;99.90
63966;DHT22;50151;52.030;5.350;2023-08-20T14:02:34;30.90;99.90
63966;DHT22;50151;52.030;5.350;2023-08-20T14:05:02;31.10;99.90
63966;DHT22;50151;52.030;5.350;2023-08-20T14:07:31;30.30;99.90
63966;DHT22;50151;52.030;5.350;2023-08-20T14:09:59;30.80;99.90
63966;DHT22;50151;52.030;5.350;2023-08-20T14:12:26;30.80;99.90
63966;DHT22;50151;52.030;5.350;2023-08-20T14:14:53;30.40;99.90
63966;DHT22;50151;52.030;5.350;2023-08-20T14:17:19;30.80;99.90
63966;DHT22;50151;52.030;5.350;2023-08-20T14:19:46;30.40;99.90
63966;DHT22;50151;52.030;5.350;2023-08-20T14:22:13;30.70;99.90
63966;DHT22;50151;52.030;5.350;2023-08-20T14:24:40;31.30;99.90
63966;DHT22;50151;52.030;5.350;2023-08-20T14:27:07;31.10;99.90
63966;DHT22;50151;52.030;5.350;2023-08-20T14:29:36;30.30;99.90
63966;DHT22;50151;52.030;5.350;2023-08-20T14:32:03;29.30;99.90
63966;DHT22;50151;52.030;5.350;2023-08-20T14:34:30;29.40;99.90
63966;DHT22;50151;52.030;5.350;2023-08-20T14:36:57;28.90;99.90
63966;DHT22;50151;52.030;5.350;2023-08-20T14:39:24;30.00;99.90
63966;DHT22;50151;52.030;5.350;2023-08-20T14:41:51;29.30;99.90
63966;DHT22;50151;52.030;5.350;2023-08-20T14:44:17;30.10;99.90
63966;DHT22;50151;52.030;5.350;2023-08-20T14:46:44;29.30;99.90
63966;DHT22;50151;52.030;5.350;2023-08-20T14:49:11;28.70;99.90
63966;DHT22;50151;52.030;5.350;2023-08-20T14:51:38;28.50;99.90
63966;DHT22;50151;52.030;5.350;2023-08-20T14:54:04;29.20;99.90
63966;DHT22;50151;52.030;5.350;2023-08-20T14:56:31;29.40;99.90
63966;DHT22;50151;52.030;5.350;2023-08-20T14:58:58;29.70;99.90
63966;DHT22;50151;52.030;5.350;2023-08-20T15:01:32;30.40;99.90
63966;DHT22;50151;52.030;5.350;2023-08-20T15:03:58;30.30;99.90
63966;DHT22;50151;52.030;5.350;2023-08-20T15:06:25;30.40;99.90
63966;DHT22;50151;52.030;5.350;2023-08-20T15:08:53;30.00;99.90
63966;DHT22;50151;52.030;5.350;2023-08-20T15:11:20;29.70;99.90
63966;DHT22;50151;52.030;5.350;2023-08-20T15:13:47;29.80;99.90
63966;DHT22;50151;52.030;5.350;2023-08-20T15:16:13;30.00;99.90
63966;DHT22;50151;52.030;5.350;2023-08-20T15:18:40;29.90;99.90
63966;DHT22;50151;52.030;5.350;2023-08-20T15:21:07;29.80;99.90
63966;DHT22;50151;52.030;5.350;2023-08-20T15:23:38;29.50;99.90
63966;DHT22;50151;52.030;5.350;2023-08-20T15:26:04;29.80;99.90
63966;DHT22;50151;52.030;5.350;2023-08-20T15:28:31;29.50;99.90
63966;DHT22;50151;52.030;5.350;2023-08-20T15:30:59;29.50;99.90
63966;DHT22;50151;52.030;5.350;2023-08-20T15:33:27;29.60;99.90
63966;DHT22;50151;52.030;5.350;2023-08-20T15:35:53;29.60;99.90
63966;DHT22;50151;52.030;5.350;2023-08-20T15:38:20;29.60;99.90
63966;DHT22;50151;52.030;5.350;2023-08-20T15:40:47;29.30;99.90
63966;DHT22;50151;52.030;5.350;2023-08-20T15:43:14;29.10;99.90
63966;DHT22;50151;52.030;5.350;2023-08-20T15:45:40;28.70;99.90
63966;DHT22;50151;52.030;5.350;2023-08-20T15:48:08;28.30;99.90